Time;durP1;ratioP1;P1;durP2;ratioP2;P2;SDS_P1;SDS_P2;PMS_P1;PMS_P2;Temp;Humidity;BMP_temperature;BMP_pressure;BME280_temperature;BME280_humidity;BME280_pressure;Samples;Min_cycle;Max_cycle;Signal;HPM_P1;HPM_P2
2023/09/30 00:00:27;;;;;;;19.45;5.68;;;11.80;99.90;;;;;;4897437;29;20148;-95
2023/09/30 00:02:56;;;;;;;22.98;7.32;;;11.10;99.90;;;;;;4896479;29;20048;-94
2023/09/30 00:05:22;;;;;;;25.60;8.68;;;11.20;99.90;;;;;;4900017;29;20080;-93
2023/09/30 00:07:47;;;;;;;25.83;9.00;;;11.40;99.90;;;;;;4897942;29;20146;-94
2023/09/30 00:10:25;;;;;;;31.73;9.48;;;12.40;99.90;;;;;;4916780;29;20040;-94
2023/09/30 00:12:51;;;;;;;23.80;7.35;;;12.40;99.90;;;;;;4921476;29;20059;-95
2023/09/30 00:15:17;;;;;;;22.83;6.43;;;11.10;99.90;;;;;;4917594;29;20134;-95
2023/09/30 00:17:51;;;;;;;19.15;5.85;;;12.10;99.90;;;;;;4915032;29;20451;-95
2023/09/30 00:20:17;;;;;;;18.38;5.65;;;12.40;99.90;;;;;;4947389;29;20083;-95
2023/09/30 00:22:43;;;;;;;19.63;5.40;;;11.00;99.90;;;;;;4915509;29;20071;-94
2023/09/30 00:25:18;;;;;;;19.92;5.40;;;11.60;99.90;;;;;;4916857;29;20040;-95
2023/09/30 00:27:50;;;;;;;16.58;5.20;;;11.50;99.90;;;;;;4919117;29;20064;-95
2023/09/30 00:30:16;;;;;;;19.52;6.55;;;11.00;99.90;;;;;;4917878;29;20049;-96
2023/09/30 00:32:51;;;;;;;23.45;7.78;;;11.00;99.90;;;;;;4918302;29;20161;-94
2023/09/30 00:35:16;;;;;;;29.42;10.95;;;12.40;99.90;;;;;;4918156;29;20531;-94
2023/09/30 00:37:51;;;;;;;23.23;7.32;;;11.90;99.90;;;;;;4918613;29;20080;-96
2023/09/30 00:40:17;;;;;;;26.17;7.47;;;11.00;99.90;;;;;;4918158;29;20045;-95
2023/09/30 00:42:49;;;;;;;24.80;6.97;;;10.90;99.90;;;;;;4918408;29;20051;-95
2023/09/30 00:45:14;;;;;;;20.60;6.90;;;12.20;99.90;;;;;;4917936;29;20051;-94
2023/09/30 00:47:40;;;;;;;24.17;7.28;;;11.30;99.90;;;;;;4918592;29;20039;-95
2023/09/30 00:50:15;;;;;;;24.52;7.90;;;10.90;99.90;;;;;;4918469;29;20052;-95
2023/09/30 00:52:42;;;;;;;22.50;7.30;;;11.40;99.90;;;;;;4920532;29;20115;-95
2023/09/30 00:55:10;;;;;;;18.08;6.88;;;11.80;99.90;;;;;;4937242;29;20039;-95
2023/09/30 00:57:45;;;;;;;20.10;6.68;;;10.90;99.90;;;;;;4938107;29;20111;-95
2023/09/30 01:00:12;;;;;;;27.30;6.97;;;11.80;99.90;;;;;;4931200;29;20051;-94
2023/09/30 01:02:41;;;;;;;20.27;5.90;;;10.80;99.90;;;;;;4931966;29;20075;-95
2023/09/30 01:05:08;;;;;;;21.77;6.25;;;11.20;99.90;;;;;;4919315;29;20079;-96
2023/09/30 01:07:37;;;;;;;20.25;5.60;;;11.30;99.90;;;;;;4918811;29;20555;-95
2023/09/30 01:10:14;;;;;;;17.05;5.70;;;11.10;99.90;;;;;;4918502;29;20060;-95
2023/09/30 01:12:40;;;;;;;21.52;5.82;;;10.80;99.90;;;;;;4916628;29;20094;-94
2023/09/30 01:15:06;;;;;;;24.90;6.88;;;10.80;99.90;;;;;;4918103;29;20079;-95
2023/09/30 01:17:32;;;;;;;23.83;5.88;;;10.70;99.90;;;;;;4917664;29;20054;-95
2023/09/30 01:20:04;;;;;;;18.80;6.50;;;10.80;99.90;;;;;;4949258;29;20100;-95
2023/09/30 01:22:30;;;;;;;20.80;6.88;;;11.40;99.90;;;;;;4918532;29;20048;-95
2023/09/30 01:24:56;;;;;;;20.90;6.32;;;11.40;99.90;;;;;;4917905;29;20381;-95
2023/09/30 01:27:21;;;;;;;19.42;6.50;;;11.50;99.90;;;;;;4954296;29;20050;-96
2023/09/30 01:29:47;;;;;;;22.60;6.78;;;10.80;99.90;;;;;;4918192;29;20147;-95
2023/09/30 01:32:31;;;;;;;22.08;7.55;;;12.00;99.90;;;;;;4950822;29;20083;-92
2023/09/30 01:35:10;;;;;;;;;;;10.70;99.90;;;;;;4921696;29;20041;-95
2023/09/30 01:37:36;;;;;;;26.67;8.73;;;10.80;99.90;;;;;;4917513;29;19927;-95
2023/09/30 01:40:08;;;;;;;21.98;8.65;;;10.80;99.90;;;;;;4948915;29;20472;-95
2023/09/30 01:42:36;;;;;;;23.88;8.20;;;10.80;99.90;;;;;;4922594;29;20048;-95
2023/09/30 01:45:02;;;;;;;21.35;8.38;;;10.80;99.90;;;;;;4948027;29;20508;-96
2023/09/30 01:47:39;;;;;;;24.20;7.90;;;10.90;99.90;;;;;;4917313;29;20148;-95
2023/09/30 01:50:08;;;;;;;29.45;10.90;;;10.80;99.90;;;;;;4949517;29;20088;-95
2023/09/30 01:52:34;;;;;;;24.25;10.57;;;10.90;99.90;;;;;;4917242;29;20484;-95
2023/09/30 01:55:00;;;;;;;25.70;10.40;;;11.70;99.90;;;;;;4911701;29;20131;-95
2023/09/30 01:57:26;;;;;;;24.30;10.13;;;11.50;99.90;;;;;;4897978;29;20072;-95
2023/09/30 02:00:27;;;;;;;21.88;9.40;;;11.50;99.90;;;;;;4930068;29;20055;-95
2023/09/30 02:02:56;;;;;;;23.98;9.63;;;11.40;99.90;;;;;;4899255;29;20080;-95
2023/09/30 02:05:24;;;;;;;23.75;9.57;;;10.80;99.90;;;;;;4929476;29;20063;-94
2023/09/30 02:07:51;;;;;;;26.88;9.45;;;10.80;99.90;;;;;;4916578;29;20048;-95
2023/09/30 02:10:18;;;;;;;24.55;9.60;;;10.80;99.90;;;;;;4916436;29;20088;-95
2023/09/30 02:12:44;;;;;;;23.70;9.43;;;10.80;99.90;;;;;;4916843;29;20086;-95
2023/09/30 02:15:11;;;;;;;20.50;8.05;;;10.70;99.90;;;;;;4916911;29;20056;-96
2023/09/30 02:17:37;;;;;;;18.80;8.30;;;10.60;99.90;;;;;;4915850;29;20043;-94
2023/09/30 02:20:07;;;;;;;21.70;8.00;;;10.60;99.90;;;;;;4948525;29;20164;-95
2023/09/30 02:22:33;;;;;;;19.63;7.15;;;10.60;99.90;;;;;;4916748;29;20076;-95
2023/09/30 02:24:58;;;;;;;21.55;6.68;;;10.50;99.90;;;;;;4948844;29;20096;-96
2023/09/30 02:27:24;;;;;;;18.52;6.63;;;11.30;99.90;;;;;;4916461;29;20048;-95
2023/09/30 02:29:50;;;;;;;17.85;5.95;;;10.50;99.90;;;;;;4916475;29;20056;-96
2023/09/30 02:32:16;;;;;;;15.98;5.80;;;11.50;99.90;;;;;;4916360;29;20091;-95
2023/09/30 02:34:42;;;;;;;21.48;6.00;;;11.00;99.90;;;;;;4916854;29;20044;-95
2023/09/30 02:37:10;;;;;;;13.27;5.20;;;10.80;99.90;;;;;;4951179;29;20052;-95
2023/09/30 02:39:37;;;;;;;15.48;5.00;;;10.40;99.90;;;;;;4917237;29;20484;-95
2023/09/30 02:42:03;;;;;;;18.13;5.80;;;10.30;99.90;;;;;;4916560;29;20055;-95
2023/09/30 02:44:28;;;;;;;18.10;5.70;;;10.30;99.90;;;;;;4917128;29;20134;-96
2023/09/30 02:46:55;;;;;;;17.50;5.28;;;10.30;99.90;;;;;;4897792;29;20481;-95
2023/09/30 02:49:21;;;;;;;18.70;5.35;;;10.60;99.90;;;;;;4897485;29;20056;-95
2023/09/30 02:51:47;;;;;;;17.60;6.53;;;11.30;99.90;;;;;;4899043;29;20100;-95
2023/09/30 02:54:16;;;;;;;16.90;5.38;;;11.10;99.90;;;;;;4899284;29;20455;-95
2023/09/30 02:56:46;;;;;;;14.88;5.50;;;10.60;99.90;;;;;;4897753;29;20426;-96
2023/09/30 02:59:13;;;;;;;18.65;5.57;;;10.20;99.90;;;;;;4897387;29;20091;-95
2023/09/30 03:01:39;;;;;;;19.13;5.65;;;10.20;99.90;;;;;;4907684;29;20044;-95
2023/09/30 03:04:06;;;;;;;17.67;5.88;;;10.20;99.90;;;;;;4899754;29;20146;-96
2023/09/30 03:06:36;;;;;;;17.98;6.00;;;10.20;99.90;;;;;;4897389;29;20052;-96
2023/09/30 03:09:04;;;;;;;18.52;6.03;;;11.10;99.90;;;;;;4897841;29;20100;-96
2023/09/30 03:11:34;;;;;;;16.10;5.78;;;10.10;99.90;;;;;;4931740;29;20048;-96
2023/09/30 03:13:59;;;;;;;17.08;5.78;;;10.10;99.90;;;;;;4906929;29;20036;-96
2023/09/30 03:16:25;;;;;;;17.38;5.97;;;10.10;99.90;;;;;;4898501;29;20056;-95
2023/09/30 03:18:51;;;;;;;16.73;5.70;;;10.10;99.90;;;;;;4897342;29;20048;-95
2023/09/30 03:21:17;;;;;;;16.52;6.00;;;10.20;99.90;;;;;;4928490;29;20056;-96
2023/09/30 03:23:43;;;;;;;21.15;7.32;;;10.80;99.90;;;;;;4897903;29;20504;-95
2023/09/30 03:26:13;;;;;;;16.52;6.20;;;10.80;99.90;;;;;;4896966;29;20040;-95
2023/09/30 03:28:39;;;;;;;19.05;6.40;;;10.60;99.90;;;;;;4900316;29;20284;-96
2023/09/30 03:31:19;;;;;;;20.52;6.68;;;11.00;99.90;;;;;;4919391;29;20566;-96
2023/09/30 03:33:46;;;;;;;20.00;7.03;;;11.00;99.90;;;;;;4919028;29;20443;-95
2023/09/30 03:36:18;;;;;;;18.88;6.00;;;10.20;99.90;;;;;;4919154;29;20047;-95
2023/09/30 03:38:44;;;;;;;20.73;6.65;;;10.80;99.90;;;;;;4919419;29;20047;-95
2023/09/30 03:41:13;;;;;;;22.20;6.55;;;10.30;99.90;;;;;;4950470;29;20055;-94
2023/09/30 03:43:41;;;;;;;19.05;6.20;;;11.10;99.90;;;;;;4919284;29;20130;-96
2023/09/30 03:46:11;;;;;;;18.95;6.68;;;10.80;99.90;;;;;;4951057;29;20047;-95
2023/09/30 03:48:47;;;;;;;21.30;6.45;;;10.10;99.90;;;;;;4919329;29;20063;-94
2023/09/30 03:51:24;;;;;;;21.80;7.38;;;11.30;99.90;;;;;;4919006;29;20058;-95
2023/09/30 03:54:02;;;;;;;17.92;6.75;;;11.30;99.90;;;;;;4971582;29;20028;-96
2023/09/30 03:56:47;;;;;;;17.83;6.63;;;11.20;99.90;;;;;;4937612;29;20047;-96
2023/09/30 03:59:12;;;;;;;18.63;6.75;;;10.10;99.90;;;;;;4964451;28;20050;-96
2023/09/30 04:01:54;;;;;;;20.35;6.70;;;10.10;99.90;;;;;;4931595;29;20129;-95
2023/09/30 04:04:38;;;;;;;19.23;7.20;;;11.20;99.90;;;;;;4941714;29;20065;-95
2023/09/30 04:07:05;;;;;;;22.50;6.25;;;11.10;99.90;;;;;;4941779;29;20053;-96
2023/09/30 04:09:32;;;;;;;20.40;7.10;;;10.90;99.90;;;;;;4941144;29;20474;-95
2023/09/30 04:11:58;;;;;;;19.83;6.60;;;10.90;99.90;;;;;;4941599;29;20046;-95
2023/09/30 04:14:29;;;;;;;22.85;7.80;;;10.80;99.90;;;;;;4941801;29;20130;-96
2023/09/30 04:16:55;;;;;;;20.25;7.10;;;10.90;99.90;;;;;;4941397;29;20035;-96
2023/09/30 04:19:40;;;;;;;20.58;7.55;;;10.10;99.90;;;;;;4941351;29;20047;-96
2023/09/30 04:22:21;;;;;;;19.48;7.25;;;10.10;99.90;;;;;;4947601;29;20047;-96
2023/09/30 04:24:49;;;;;;;19.40;7.10;;;10.60;99.90;;;;;;4942610;29;20502;-95
2023/09/30 04:27:29;;;;;;;20.95;7.38;;;11.20;99.90;;;;;;4947625;29;20043;-94
2023/09/30 04:30:08;;;;;;;16.75;6.60;;;10.60;99.90;;;;;;4961003;29;20142;-95
2023/09/30 04:32:40;;;;;;;22.25;6.85;;;10.10;99.90;;;;;;4950508;29;20106;-96
2023/09/30 04:35:08;;;;;;;20.17;6.95;;;11.40;99.90;;;;;;4942929;29;20069;-96
2023/09/30 04:37:35;;;;;;;20.95;6.50;;;10.20;99.90;;;;;;4973515;28;20089;-96
2023/09/30 04:40:19;;;;;;;24.90;6.80;;;11.10;99.90;;;;;;4938781;29;20055;-95
2023/09/30 04:43:02;;;;;;;22.75;7.25;;;11.10;99.90;;;;;;4946397;29;20059;-95
2023/09/30 04:45:34;;;;;;;18.25;6.65;;;10.20;99.90;;;;;;4980473;28;20202;-96
2023/09/30 04:48:02;;;;;;;20.17;6.93;;;11.50;99.90;;;;;;4942291;29;20499;-95
2023/09/30 04:50:30;;;;;;;23.92;7.30;;;11.40;99.90;;;;;;4972698;28;20047;-96
2023/09/30 04:52:57;;;;;;;17.77;6.63;;;11.30;99.90;;;;;;4973406;28;20051;-96
2023/09/30 04:55:23;;;;;;;20.30;7.30;;;11.00;99.90;;;;;;4940863;29;20074;-95
2023/09/30 04:57:49;;;;;;;24.38;6.97;;;10.70;99.90;;;;;;4940124;29;20043;-95
2023/09/30 05:00:50;;;;;;;18.52;7.05;;;10.70;99.90;;;;;;4972943;28;20039;-96
2023/09/30 05:03:16;;;;;;;22.10;8.02;;;10.40;99.90;;;;;;4908597;29;20514;-95
2023/09/30 05:05:42;;;;;;;19.08;7.85;;;10.40;99.90;;;;;;4940576;29;20055;-95
2023/09/30 05:08:20;;;;;;;19.10;7.65;;;11.80;99.90;;;;;;4940475;29;20043;-95
2023/09/30 05:10:46;;;;;;;17.20;6.72;;;11.10;99.90;;;;;;4940479;29;20047;-95
2023/09/30 05:13:12;;;;;;;17.30;7.35;;;10.50;99.90;;;;;;4939794;29;20051;-95
2023/09/30 05:15:41;;;;;;;18.40;6.82;;;10.80;99.90;;;;;;4972826;28;20475;-95
2023/09/30 05:18:09;;;;;;;21.63;7.78;;;11.10;99.90;;;;;;4940429;29;20051;-96
2023/09/30 05:20:36;;;;;;;19.63;7.20;;;11.00;99.90;;;;;;4972405;28;20043;-95
2023/09/30 05:23:57;;;;;;;21.50;7.85;;;10.60;99.90;;;;;;4938807;29;20059;-95
2023/09/30 05:26:34;;;;;;;17.17;7.20;;;10.70;99.90;;;;;;4902954;29;20508;-95
2023/09/30 05:29:12;;;;;;;19.80;7.57;;;11.70;99.90;;;;;;4939504;29;20512;-96
2023/09/30 05:31:41;;;;;;;20.27;7.85;;;12.00;99.90;;;;;;4940045;29;20051;-95
2023/09/30 05:34:16;;;;;;;22.50;8.52;;;10.80;99.90;;;;;;4939747;29;20065;-95
2023/09/30 05:36:42;;;;;;;25.17;8.13;;;10.50;99.90;;;;;;4940491;29;20066;-94
2023/09/30 05:39:10;;;;;;;23.17;8.38;;;10.70;99.90;;;;;;4939618;29;20051;-94
2023/09/30 05:41:37;;;;;;;18.02;8.00;;;10.80;99.90;;;;;;4939771;29;20487;-95
2023/09/30 05:44:14;;;;;;;21.73;8.95;;;11.50;99.90;;;;;;4939766;29;20394;-95
2023/09/30 05:46:40;;;;;;;20.85;8.23;;;11.90;99.90;;;;;;4939922;29;20502;-94
2023/09/30 05:49:14;;;;;;;23.00;8.57;;;10.90;99.90;;;;;;4944591;28;20035;-94
2023/09/30 05:51:41;;;;;;;21.33;8.65;;;11.20;99.90;;;;;;4942571;29;20470;-94
2023/09/30 05:54:11;;;;;;;20.65;8.07;;;11.10;99.90;;;;;;4928646;29;20062;-88
2023/09/30 05:56:43;;;;;;;19.13;7.93;;;10.90;99.90;;;;;;4973376;28;20403;-87
2023/09/30 05:59:21;;;;;;;20.83;8.63;;;11.40;99.90;;;;;;4921074;29;20044;-87
2023/09/30 06:01:47;;;;;;;19.25;8.02;;;11.90;99.90;;;;;;4918998;29;20126;-87
2023/09/30 06:04:12;;;;;;;22.10;8.43;;;12.20;99.90;;;;;;4919473;29;20138;-87
2023/09/30 06:06:50;;;;;;;19.70;8.48;;;10.80;99.90;;;;;;4921227;29;20055;-87
2023/09/30 06:09:29;;;;;;;17.88;8.52;;;10.80;99.90;;;;;;4935364;29;20057;-88
2023/09/30 06:12:07;;;;;;;20.73;8.82;;;11.80;99.90;;;;;;4939596;29;20107;-88
2023/09/30 06:14:39;;;;;;;19.70;8.13;;;11.30;99.90;;;;;;4940645;29;20479;-88
2023/09/30 06:17:16;;;;;;;18.73;8.40;;;10.80;99.90;;;;;;4935704;29;20055;-87
2023/09/30 06:19:42;;;;;;;19.95;9.07;;;11.30;99.90;;;;;;4919403;29;20047;-87
2023/09/30 06:22:12;;;;;;;20.13;9.77;;;11.30;99.90;;;;;;4949763;28;20048;-89
2023/09/30 06:24:37;;;;;;;21.63;9.30;;;12.00;99.90;;;;;;4920193;29;20046;-88
2023/09/30 06:27:13;;;;;;;21.20;9.30;;;12.20;99.90;;;;;;4920052;29;20047;-87
2023/09/30 06:29:39;;;;;;;20.45;9.02;;;11.80;99.90;;;;;;4919086;29;20055;-88
2023/09/30 06:32:05;;;;;;;21.10;9.45;;;11.00;99.90;;;;;;4920943;29;20052;-88
2023/09/30 06:34:33;;;;;;;20.35;8.48;;;11.10;99.90;;;;;;4919729;29;20134;-87
2023/09/30 06:36:58;;;;;;;20.45;8.95;;;11.00;99.90;;;;;;4919259;29;20050;-86
2023/09/30 06:39:24;;;;;;;23.45;9.00;;;11.70;99.90;;;;;;4920640;29;20134;-86
2023/09/30 06:41:49;;;;;;;21.95;8.75;;;11.10;99.90;;;;;;4919821;29;20085;-86
2023/09/30 06:44:15;;;;;;;20.00;8.82;;;11.40;99.90;;;;;;4918518;29;20039;-86
2023/09/30 06:46:41;;;;;;;20.10;8.88;;;11.40;99.90;;;;;;4919341;29;20047;-85
2023/09/30 06:49:06;;;;;;;22.48;9.18;;;11.60;99.90;;;;;;4918885;29;20047;-86
2023/09/30 06:51:32;;;;;;;21.42;9.13;;;12.50;99.90;;;;;;4918484;29;20058;-85
2023/09/30 06:53:57;;;;;;;22.83;8.80;;;11.30;99.90;;;;;;4920218;29;20094;-87
2023/09/30 06:56:23;;;;;;;20.88;9.05;;;11.40;99.90;;;;;;4937000;29;20487;-85
2023/09/30 06:58:48;;;;;;;22.52;9.23;;;11.40;99.90;;;;;;4969034;28;20046;-86
2023/09/30 07:01:17;;;;;;;22.85;10.25;;;11.80;99.90;;;;;;4970265;28;20039;-87
2023/09/30 07:03:43;;;;;;;20.30;9.35;;;11.50;99.90;;;;;;4970302;28;20379;-86
2023/09/30 07:06:09;;;;;;;20.77;8.82;;;11.50;99.90;;;;;;4936931;29;20053;-85
2023/09/30 07:08:35;;;;;;;23.25;10.18;;;11.70;99.90;;;;;;4929619;29;20151;-85
2023/09/30 07:11:01;;;;;;;20.90;9.15;;;11.70;99.90;;;;;;4917850;29;20130;-86
2023/09/30 07:13:27;;;;;;;19.02;8.82;;;11.70;99.90;;;;;;4923425;29;20043;-86
2023/09/30 07:15:53;;;;;;;22.08;9.93;;;11.80;99.90;;;;;;4969176;28;20054;-85
2023/09/30 07:18:18;;;;;;;19.83;9.80;;;12.90;99.90;;;;;;4937509;29;20050;-85
2023/09/30 07:20:44;;;;;;;24.10;9.65;;;12.20;99.90;;;;;;4969632;28;20133;-86
2023/09/30 07:23:10;;;;;;;21.45;9.98;;;11.90;99.90;;;;;;4937415;28;20043;-86
2023/09/30 07:25:35;;;;;;;17.80;9.90;;;13.10;99.90;;;;;;4970821;28;20047;-86
2023/09/30 07:28:02;;;;;;;20.23;9.70;;;12.10;99.90;;;;;;4937781;28;20051;-86
2023/09/30 07:30:27;;;;;;;19.38;9.38;;;12.10;99.90;;;;;;4969056;28;20453;-85
2023/09/30 07:32:53;;;;;;;21.17;9.73;;;12.20;99.90;;;;;;4937434;28;20487;-87
2023/09/30 07:35:19;;;;;;;19.92;10.07;;;12.70;99.90;;;;;;4973839;28;20043;-86
2023/09/30 07:37:46;;;;;;;21.40;9.82;;;12.50;99.90;;;;;;4941518;29;20047;-86
2023/09/30 07:40:27;;;;;;;21.02;10.50;;;12.50;99.90;;;;;;4940987;29;20055;-86
2023/09/30 07:43:03;;;;;;;20.13;10.13;;;12.40;99.90;;;;;;4941069;29;20578;-86
2023/09/30 07:45:44;;;;;;;22.65;10.23;;;12.50;99.90;;;;;;4922191;29;20043;-86
2023/09/30 07:48:09;;;;;;;22.02;10.57;;;13.40;99.90;;;;;;4922893;28;20050;-85
2023/09/30 07:50:39;;;;;;;22.25;9.98;;;12.70;99.90;;;;;;4941360;29;20043;-85
2023/09/30 07:53:04;;;;;;;24.17;10.00;;;13.90;99.90;;;;;;4941397;28;20406;-85
2023/09/30 07:55:30;;;;;;;20.45;10.93;;;12.90;99.90;;;;;;4939844;29;20491;-86
2023/09/30 07:57:59;;;;;;;21.00;11.75;;;13.40;99.90;;;;;;4957670;29;20447;-86
2023/09/30 08:00:24;;;;;;;21.73;9.77;;;13.10;99.90;;;;;;4958614;28;20042;-86
2023/09/30 08:02:51;;;;;;;19.33;8.98;;;13.30;99.90;;;;;;4959873;28;20057;-86
2023/09/30 08:05:16;;;;;;;19.33;9.32;;;13.30;99.90;;;;;;4958977;28;20047;-86
2023/09/30 08:07:42;;;;;;;21.48;9.65;;;13.40;99.90;;;;;;4969168;28;20047;-85
2023/09/30 08:10:13;;;;;;;20.70;9.27;;;14.00;99.90;;;;;;4943612;29;20079;-90
2023/09/30 08:12:39;;;;;;;20.00;9.10;;;13.60;99.90;;;;;;4939916;29;20403;-89
2023/09/30 08:15:05;;;;;;;18.05;8.82;;;13.70;99.90;;;;;;4939640;29;20047;-90
2023/09/30 08:17:32;;;;;;;23.25;9.48;;;13.80;99.90;;;;;;4939026;29;20043;-87
2023/09/30 08:19:57;;;;;;;17.80;8.32;;;13.90;99.90;;;;;;4940531;29;20407;-87
2023/09/30 08:22:27;;;;;;;18.77;8.70;;;14.00;99.90;;;;;;4937617;29;20098;-87
2023/09/30 08:24:53;;;;;;;17.65;8.07;;;14.20;99.90;;;;;;4931141;29;20039;-87
2023/09/30 08:27:19;;;;;;;19.27;8.32;;;15.30;99.90;;;;;;4940791;28;20058;-86
2023/09/30 08:29:44;;;;;;;18.73;8.57;;;14.60;99.90;;;;;;4954885;29;20055;-85
2023/09/30 08:32:10;;;;;;;17.17;8.32;;;14.20;99.90;;;;;;4955018;29;20099;-87
2023/09/30 08:34:36;;;;;;;18.58;9.00;;;14.20;99.90;;;;;;4954928;29;20043;-85
2023/09/30 08:37:01;;;;;;;17.80;8.27;;;14.20;99.90;;;;;;4939028;29;20050;-87
2023/09/30 08:39:28;;;;;;;19.45;9.00;;;14.20;99.90;;;;;;4971585;28;20133;-84
2023/09/30 08:41:55;;;;;;;18.67;8.63;;;14.10;99.90;;;;;;4939591;29;20082;-85
2023/09/30 08:44:20;;;;;;;19.65;9.48;;;15.10;99.90;;;;;;4938705;28;20487;-86
2023/09/30 08:46:47;;;;;;;19.38;8.95;;;14.10;99.90;;;;;;4941898;29;20122;-86
2023/09/30 08:49:33;;;;;;;17.52;8.77;;;14.20;99.90;;;;;;4939649;29;20090;-86
2023/09/30 08:52:40;;;;;;;17.75;8.85;;;14.30;99.90;;;;;;4939510;29;20683;-84
2023/09/30 08:55:10;;;;;;;21.13;9.10;;;14.30;99.90;;;;;;4940133;29;20489;-85
2023/09/30 08:57:41;;;;;;;21.10;9.05;;;15.50;99.90;;;;;;4938973;29;20499;-86
2023/09/30 09:00:11;;;;;;;20.45;8.45;;;14.60;99.90;;;;;;4940483;29;20051;-86
2023/09/30 09:02:38;;;;;;;19.67;8.80;;;14.70;99.90;;;;;;4945419;28;20054;-86
2023/09/30 09:05:04;;;;;;;19.10;7.65;;;14.80;99.90;;;;;;4939325;29;20047;-86
2023/09/30 09:07:33;;;;;;;18.48;8.25;;;14.90;99.90;;;;;;4938959;29;20141;-87
2023/09/30 09:10:10;;;;;;;20.52;8.18;;;16.10;99.90;;;;;;4940946;29;20053;-88
2023/09/30 09:12:40;;;;;;;18.48;8.45;;;15.20;99.90;;;;;;4940392;29;20448;-88
2023/09/30 09:15:26;;;;;;;18.00;8.30;;;15.20;99.90;;;;;;4941651;29;20055;-87
2023/09/30 09:18:07;;;;;;;17.45;8.23;;;15.40;99.90;;;;;;4941028;29;20039;-87
2023/09/30 09:20:36;;;;;;;20.45;8.45;;;15.50;99.90;;;;;;4940108;29;20104;-91
2023/09/30 09:23:22;;;;;;;17.92;8.43;;;15.60;99.90;;;;;;4940240;29;20054;-88
2023/09/30 09:25:49;;;;;;;16.25;7.80;;;15.70;99.90;;;;;;4938699;29;20476;-88
2023/09/30 09:28:36;;;;;;;18.20;7.45;;;15.80;99.90;;;;;;4936819;29;20043;-87
2023/09/30 09:31:03;;;;;;;15.25;6.45;;;15.80;99.90;;;;;;4937121;29;20067;-86
2023/09/30 09:33:40;;;;;;;18.48;7.78;;;16.30;99.90;;;;;;4937633;29;20051;-88
2023/09/30 09:36:06;;;;;;;15.32;6.68;;;16.10;99.90;;;;;;4950805;28;20070;-88
2023/09/30 09:38:53;;;;;;;17.25;7.03;;;16.10;99.90;;;;;;4938794;28;20054;-86
2023/09/30 09:41:23;;;;;;;15.90;7.00;;;16.20;99.90;;;;;;4934846;29;20050;-86
2023/09/30 09:43:50;;;;;;;15.45;6.72;;;16.30;99.90;;;;;;4936922;29;20174;-85
2023/09/30 09:46:17;;;;;;;16.23;7.05;;;16.40;99.90;;;;;;4938291;29;20038;-86
2023/09/30 09:48:47;;;;;;;16.42;6.93;;;16.50;99.90;;;;;;4939036;29;20054;-86
2023/09/30 09:51:13;;;;;;;16.98;6.95;;;16.60;99.90;;;;;;4939237;29;20106;-87
2023/09/30 09:53:41;;;;;;;15.88;6.68;;;16.70;99.90;;;;;;4954431;29;20070;-88
2023/09/30 09:56:11;;;;;;;13.38;6.28;;;16.70;99.90;;;;;;4935934;28;20054;-86
2023/09/30 09:58:41;;;;;;;14.60;6.00;;;16.60;99.90;;;;;;4940053;29;20054;-86
2023/09/30 10:01:06;;;;;;;14.43;6.53;;;16.70;99.90;;;;;;4991837;23;20054;-87
2023/09/30 10:03:35;;;;;;;18.70;6.97;;;16.70;99.90;;;;;;4938921;29;20051;-86
2023/09/30 10:06:01;;;;;;;17.65;7.07;;;16.40;99.90;;;;;;4968942;28;20086;-87
2023/09/30 10:08:53;;;;;;;15.98;6.80;;;16.40;99.90;;;;;;4938913;29;20055;-89
2023/09/30 10:11:19;;;;;;;17.20;7.03;;;16.60;99.90;;;;;;4972194;28;20545;-88
2023/09/30 10:13:55;;;;;;;16.50;6.45;;;16.70;99.90;;;;;;4940401;29;20133;-89
2023/09/30 10:16:36;;;;;;;17.83;6.32;;;16.90;99.90;;;;;;4940124;29;20058;-88
2023/09/30 10:19:12;;;;;;;14.77;6.50;;;17.00;99.90;;;;;;4940189;29;20142;-89
2023/09/30 10:21:38;;;;;;;15.63;6.00;;;17.10;99.90;;;;;;4942027;29;20047;-88
2023/09/30 10:24:22;;;;;;;16.55;6.20;;;17.30;99.90;;;;;;4939831;29;20051;-87
2023/09/30 10:27:32;;;;;;;15.38;5.95;;;17.50;99.90;;;;;;4955585;29;20479;-83
2023/09/30 10:30:01;;;;;;;16.30;6.80;;;17.70;99.90;;;;;;4938181;29;20058;-88
2023/09/30 10:32:56;;;;;;;14.68;6.25;;;17.80;99.90;;;;;;4938333;29;20055;-90
2023/09/30 10:35:31;;;;;;;16.38;6.18;;;17.90;99.90;;;;;;4936967;29;20051;-90
2023/09/30 10:38:22;;;;;;;15.82;5.65;;;18.10;99.90;;;;;;4938069;29;20051;-89
2023/09/30 10:40:48;;;;;;;13.55;5.43;;;18.10;99.90;;;;;;4925630;29;20059;-86
2023/09/30 10:43:31;;;;;;;16.65;5.88;;;18.20;99.90;;;;;;4917873;29;20052;-90
2023/09/30 10:46:06;;;;;;;16.45;5.80;;;18.30;99.90;;;;;;4921467;29;20050;-88
2023/09/30 10:48:45;;;;;;;15.70;5.25;;;18.80;99.90;;;;;;4951277;29;20060;-87
2023/09/30 10:51:15;;;;;;;15.40;5.85;;;18.60;99.90;;;;;;4949919;28;20051;-86
2023/09/30 10:53:51;;;;;;;15.52;5.57;;;18.60;99.90;;;;;;4919092;29;20488;-87
2023/09/30 10:56:20;;;;;;;13.35;4.80;;;18.80;99.90;;;;;;4936931;29;20047;-87
2023/09/30 10:58:48;;;;;;;15.48;5.30;;;19.00;99.90;;;;;;4937977;29;20070;-87
2023/09/30 11:01:24;;;;;;;14.45;5.32;;;19.10;99.90;;;;;;4905041;29;20062;-92
2023/09/30 11:03:58;;;;;;;13.90;4.88;;;19.40;99.90;;;;;;4936991;29;20043;-83
2023/09/30 11:06:44;;;;;;;11.45;4.22;;;19.40;99.90;;;;;;4954309;29;20090;-84
2023/09/30 11:09:16;;;;;;;13.13;4.32;;;19.20;99.90;;;;;;4969195;28;20142;-83
2023/09/30 11:11:51;;;;;;;13.02;4.68;;;19.30;99.90;;;;;;4933714;29;20039;-83
2023/09/30 11:14:28;;;;;;;12.30;4.72;;;19.60;99.90;;;;;;4969235;28;20047;-85
2023/09/30 11:16:56;;;;;;;11.60;4.45;;;19.30;99.90;;;;;;4969817;28;20043;-86
2023/09/30 11:19:25;;;;;;;12.95;4.45;;;19.30;99.90;;;;;;4950451;29;20059;-85
2023/09/30 11:21:58;;;;;;;11.68;4.03;;;19.30;99.90;;;;;;4937494;29;20399;-87
2023/09/30 11:24:42;;;;;;;11.10;3.83;;;19.10;99.90;;;;;;4968643;28;20509;-87
2023/09/30 11:27:26;;;;;;;15.35;4.43;;;19.40;99.90;;;;;;4937773;29;20047;-87
2023/09/30 11:29:52;;;;;;;12.00;4.20;;;19.00;99.90;;;;;;4937764;29;20050;-84
2023/09/30 11:32:28;;;;;;;13.98;3.67;;;19.00;99.90;;;;;;4936644;29;20484;-86
2023/09/30 11:34:54;;;;;;;10.50;3.65;;;19.00;99.90;;;;;;4937871;29;20054;-86
2023/09/30 11:37:21;;;;;;;12.50;3.35;;;18.90;99.90;;;;;;4937459;29;20078;-85
2023/09/30 11:39:47;;;;;;;9.75;2.75;;;19.10;99.90;;;;;;4936615;29;20049;-85
2023/09/30 11:42:17;;;;;;;9.25;2.63;;;19.50;99.90;;;;;;4939145;28;20094;-84
2023/09/30 11:44:50;;;;;;;8.82;2.60;;;19.80;99.90;;;;;;4937179;29;20051;-82
2023/09/30 11:47:16;;;;;;;8.18;2.47;;;19.90;99.90;;;;;;4952814;28;20047;-82
2023/09/30 11:49:48;;;;;;;10.77;2.55;;;20.10;99.90;;;;;;4955766;28;20051;-85
2023/09/30 11:52:16;;;;;;;11.88;2.67;;;20.20;99.90;;;;;;4982889;23;20075;-85
2023/09/30 11:54:44;;;;;;;10.63;2.80;;;20.20;99.90;;;;;;4934845;29;20063;-84
2023/09/30 11:57:32;;;;;;;11.85;2.85;;;20.20;99.90;;;;;;4934170;29;20055;-93
2023/09/30 12:00:41;;;;;;;11.95;2.80;;;20.20;99.90;;;;;;4935855;29;20376;-84
2023/09/30 12:03:22;;;;;;;9.10;2.90;;;20.40;99.90;;;;;;4898389;29;20062;-82
2023/09/30 12:06:03;;;;;;;9.27;2.53;;;20.40;99.90;;;;;;4937157;29;20087;-84
2023/09/30 12:08:29;;;;;;;10.75;2.20;;;20.20;99.90;;;;;;4938963;29;20051;-85
2023/09/30 12:11:07;;;;;;;9.90;2.53;;;20.30;99.90;;;;;;4937154;29;20047;-85
2023/09/30 12:13:41;;;;;;;10.23;2.80;;;21.20;99.90;;;;;;4936584;29;20047;-85
2023/09/30 12:16:13;;;;;;;10.70;2.80;;;20.70;99.90;;;;;;4936602;29;20479;-84
2023/09/30 12:18:40;;;;;;;15.20;2.65;;;20.90;99.90;;;;;;4936932;29;20441;-84
2023/09/30 12:21:10;;;;;;;10.07;2.78;;;20.80;99.90;;;;;;4938134;29;20443;-86
2023/09/30 12:23:59;;;;;;;9.25;2.50;;;20.90;99.90;;;;;;4940004;29;20082;-86
2023/09/30 12:26:38;;;;;;;11.93;2.45;;;20.80;99.90;;;;;;4940411;29;20051;-85
2023/09/30 12:29:10;;;;;;;12.07;2.60;;;20.90;99.90;;;;;;4939464;29;20113;-86
2023/09/30 12:32:02;;;;;;;9.57;2.40;;;21.10;99.90;;;;;;4972243;28;20046;-86
2023/09/30 12:34:51;;;;;;;11.55;2.30;;;21.10;99.90;;;;;;4863972;29;20061;-87
2023/09/30 12:37:34;;;;;;;8.20;2.00;;;20.90;99.90;;;;;;4863939;29;20113;-87
2023/09/30 12:40:03;;;;;;;11.75;2.17;;;21.00;99.90;;;;;;4933889;29;20087;-88
2023/09/30 12:43:08;;;;;;;8.68;2.50;;;21.00;99.90;;;;;;4923265;29;20107;-90
2023/09/30 12:45:52;;;;;;;9.55;2.05;;;20.90;99.60;;;;;;4920573;29;20095;-88
2023/09/30 12:48:52;;;;;;;8.60;2.08;;;20.90;99.90;;;;;;4935262;29;20145;-86
2023/09/30 12:51:24;;;;;;;8.43;2.08;;;20.90;99.90;;;;;;4939670;29;20078;-86
2023/09/30 12:53:53;;;;;;;10.82;2.28;;;21.10;99.90;;;;;;4938837;29;20567;-85
2023/09/30 12:56:25;;;;;;;10.07;2.30;;;21.40;99.90;;;;;;4938786;29;20082;-86
2023/09/30 12:59:06;;;;;;;9.80;2.53;;;21.50;99.90;;;;;;4939177;29;20047;-86